Time;durP1;ratioP1;P1;durP2;ratioP2;P2;SDS_P1;SDS_P2;PMS_P1;PMS_P2;Temp;Humidity;BMP_temperature;BMP_pressure;BME280_temperature;BME280_humidity;BME280_pressure;Samples;Min_cycle;Max_cycle;Signal;HPM_P1;HPM_P2
2023/06/28 00:00:18;;;;;;;4.13;2.15;;;;;;;16.61;74.55;101796.03;4960864;28;20503;-78
2023/06/28 00:02:44;;;;;;;6.90;2.78;;;;;;;16.53;73.25;101798.50;4963149;28;20031;-79
2023/06/28 00:05:10;;;;;;;5.80;2.17;;;;;;;16.59;74.22;101805.94;4970302;28;20041;-79
2023/06/28 00:07:40;;;;;;;4.93;2.13;;;;;;;16.55;74.09;101801.88;4971469;28;20403;-79
2023/06/28 00:10:06;;;;;;;6.40;2.20;;;;;;;16.55;74.60;101797.41;4989877;28;20035;-78
2023/06/28 00:12:32;;;;;;;8.07;2.33;;;;;;;16.58;75.74;101801.59;4970489;28;20034;-79
2023/06/28 00:14:58;;;;;;;5.28;2.00;;;;;;;16.63;78.52;101810.03;4976172;28;20133;-79
2023/06/28 00:17:27;;;;;;;7.07;2.33;;;;;;;16.64;80.10;101806.41;4969360;28;20031;-79
2023/06/28 00:19:57;;;;;;;5.25;2.30;;;;;;;16.67;81.33;101808.00;4970274;28;20025;-79
2023/06/28 00:22:32;;;;;;;6.07;2.10;;;;;;;16.67;81.34;101806.19;4970874;28;20027;-80
2023/06/28 00:25:03;;;;;;;6.38;2.03;;;;;;;16.66;81.22;101809.81;4969371;28;20511;-80
2023/06/28 00:27:28;;;;;;;5.95;2.25;;;;;;;16.67;81.61;101798.19;4969442;28;20069;-78
2023/06/28 00:29:58;;;;;;;6.03;2.20;;;;;;;16.69;82.81;101803.38;4973318;28;20051;-79
2023/06/28 00:32:24;;;;;;;6.03;2.38;;;;;;;16.69;84.19;101804.22;4958536;28;20031;-79
2023/06/28 00:34:50;;;;;;;5.35;2.30;;;;;;;16.69;85.37;101806.88;4967669;28;20081;-79
2023/06/28 00:37:15;;;;;;;6.38;2.35;;;;;;;16.70;86.28;101810.38;4968747;28;20462;-79
2023/06/28 00:39:44;;;;;;;8.20;2.30;;;;;;;16.72;87.08;101814.59;4972453;28;20038;-79
2023/06/28 00:42:10;;;;;;;5.45;2.25;;;;;;;16.72;88.17;101814.59;4972034;28;20038;-79
2023/06/28 00:44:36;;;;;;;5.82;2.30;;;;;;;16.75;88.16;101813.50;4969435;28;20039;-80
2023/06/28 00:47:03;;;;;;;5.57;2.20;;;;;;;16.75;88.04;101811.69;4969762;28;20495;-80
2023/06/28 00:49:33;;;;;;;7.65;2.50;;;;;;;16.72;87.79;101808.44;4962226;28;20039;-81
2023/06/28 00:52:00;;;;;;;6.78;2.78;;;;;;;16.74;86.91;101809.16;4951541;28;20472;-79
2023/06/28 00:54:26;;;;;;;7.10;2.90;;;;;;;16.71;85.40;101807.59;4950505;28;20416;-80
2023/06/28 00:56:53;;;;;;;5.03;2.20;;;;;;;16.74;84.78;101802.03;4969197;28;20663;-79
2023/06/28 00:59:19;;;;;;;8.70;2.90;;;;;;;16.73;85.74;101808.31;4956452;28;20061;-79
2023/06/28 01:01:45;;;;;;;7.35;2.67;;;;;;;16.72;86.02;101806.63;4953135;28;20395;-79
2023/06/28 01:04:13;;;;;;;5.65;2.58;;;;;;;16.73;86.90;101807.47;4974178;28;20030;-80
2023/06/28 01:06:44;;;;;;;6.57;2.53;;;;;;;16.72;86.72;101809.28;4976091;28;20023;-80
2023/06/28 01:09:11;;;;;;;5.97;2.85;;;;;;;16.67;87.39;101816.81;4971088;28;20031;-80
2023/06/28 01:11:40;;;;;;;7.43;2.80;;;;;;;16.68;87.97;101813.19;4978108;28;20034;-80
2023/06/28 01:14:06;;;;;;;5.45;2.85;;;;;;;16.69;87.45;101822.84;4975072;28;20387;-79
2023/06/28 01:16:33;;;;;;;9.75;3.17;;;;;;;16.63;88.96;101818.00;4973492;28;20034;-79
2023/06/28 01:19:03;;;;;;;7.88;3.03;;;;;;;16.69;88.26;101817.53;4974202;28;20161;-81
2023/06/28 01:21:33;;;;;;;7.20;2.70;;;;;;;16.72;88.34;101817.25;4972985;28;20034;-81
2023/06/28 01:24:01;;;;;;;8.10;3.47;;;;;;;16.74;89.33;101811.81;4971814;28;20038;-79
2023/06/28 01:26:28;;;;;;;8.95;2.97;;;;;;;16.71;89.50;101807.59;4973990;28;20030;-81
2023/06/28 01:28:55;;;;;;;13.82;2.75;;;;;;;16.68;89.34;101813.19;4976827;28;20105;-80
2023/06/28 01:31:20;;;;;;;9.30;3.35;;;;;;;16.55;89.86;101807.19;4973076;28;20110;-81
2023/06/28 01:33:48;;;;;;;7.25;2.75;;;;;;;16.56;89.88;101811.53;4971597;28;20158;-81
2023/06/28 01:36:13;;;;;;;9.63;2.88;;;;;;;16.57;90.48;101808.75;4972336;28;20030;-80
2023/06/28 01:38:39;;;;;;;10.95;3.40;;;;;;;16.50;90.74;101804.06;4976041;28;20038;-80
2023/06/28 01:41:07;;;;;;;5.95;3.15;;;;;;;16.54;90.54;101797.53;4970443;28;20558;-80
2023/06/28 01:43:33;;;;;;;9.27;3.60;;;;;;;16.60;89.83;101800.50;4976844;28;20037;-80
2023/06/28 01:45:58;;;;;;;8.90;3.42;;;;;;;16.51;90.88;101803.09;4973753;28;20015;-79
2023/06/28 01:48:25;;;;;;;6.50;3.63;;;;;;;16.55;90.96;101796.56;4973528;28;20160;-81
2023/06/28 01:50:51;;;;;;;11.20;3.63;;;;;;;16.45;91.55;101796.50;4971662;28;20031;-80
2023/06/28 01:53:17;;;;;;;9.15;4.03;;;;;;;16.39;92.63;101796.97;4973761;28;20029;-80
2023/06/28 01:55:43;;;;;;;12.27;4.05;;;;;;;16.37;93.45;101792.75;4973335;28;20038;-81
2023/06/28 01:58:08;;;;;;;10.00;4.18;;;;;;;16.44;92.67;101793.97;4960205;28;20027;-81
2023/06/28 02:00:34;;;;;;;9.27;4.30;;;;;;;16.47;93.14;101788.38;4955139;28;20024;-81
2023/06/28 02:03:00;;;;;;;14.35;4.18;;;;;;;16.38;93.91;101789.13;4970179;28;20481;-81
2023/06/28 02:05:25;;;;;;;12.32;4.40;;;;;;;16.38;93.85;101783.81;4972417;28;20105;-80
2023/06/28 02:07:52;;;;;;;10.10;4.03;;;;;;;16.36;92.84;101789.25;4973744;28;20114;-79
2023/06/28 02:10:21;;;;;;;7.00;3.92;;;;;;;16.41;92.39;101787.09;4976202;28;20058;-80
2023/06/28 02:12:46;;;;;;;9.07;4.30;;;;;;;16.41;90.89;101780.91;4972507;28;20391;-79
2023/06/28 02:15:12;;;;;;;10.02;4.07;;;;;;;16.40;91.03;101781.88;4970246;28;20035;-79
2023/06/28 02:17:38;;;;;;;10.77;4.00;;;;;;;16.42;91.05;101782.63;4974037;28;20127;-79
2023/06/28 02:20:04;;;;;;;8.43;4.28;;;;;;;16.42;90.97;101782.63;4973563;28;20079;-78
2023/06/28 02:22:29;;;;;;;11.10;3.95;;;;;;;16.39;90.85;101774.88;4973199;28;20034;-79
2023/06/28 02:24:55;;;;;;;6.15;3.92;;;;;;;16.41;90.50;101772.94;4973660;28;20026;-79
2023/06/28 02:27:20;;;;;;;8.38;4.00;;;;;;;16.42;90.46;101775.50;4972164;28;20039;-79
2023/06/28 02:29:46;;;;;;;8.35;4.15;;;;;;;16.43;90.32;101771.88;4971118;28;20034;-79
2023/06/28 02:32:12;;;;;;;14.70;4.18;;;;;;;16.45;90.03;101763.78;4970927;28;20062;-77
2023/06/28 02:34:40;;;;;;;10.38;4.25;;;;;;;16.41;90.70;101771.16;4971811;28;20052;-78
2023/06/28 02:37:06;;;;;;;15.13;4.85;;;;;;;16.40;90.16;101766.78;4972997;28;20054;-79
2023/06/28 02:39:31;;;;;;;11.88;4.47;;;;;;;16.45;91.41;101763.78;4973445;28;20442;-79
2023/06/28 02:41:57;;;;;;;8.93;3.95;;;;;;;16.44;91.01;101762.94;4975106;28;20042;-79
2023/06/28 02:44:23;;;;;;;10.43;4.28;;;;;;;16.46;90.72;101770.78;4975976;28;20018;-80
2023/06/28 02:46:48;;;;;;;11.35;4.05;;;;;;;16.46;90.95;101771.63;4971643;28;20039;-79
2023/06/28 02:49:14;;;;;;;11.95;4.25;;;;;;;16.45;92.01;101769.94;4972392;28;20038;-79
2023/06/28 02:51:40;;;;;;;9.73;4.10;;;;;;;16.42;91.88;101764.88;4970870;28;20031;-78
2023/06/28 02:54:06;;;;;;;7.25;4.13;;;;;;;16.41;92.56;101764.97;4971558;28;20061;-78
2023/06/28 02:56:45;;;;;;;10.50;3.72;;;;;;;16.44;92.97;101773.56;4977126;28;20395;-72
2023/06/28 02:59:11;;;;;;;10.00;3.50;;;;;;;16.44;94.02;101775.38;4990074;28;20034;-79
2023/06/28 03:01:36;;;;;;;8.63;3.65;;;;;;;16.38;94.59;101768.72;4974901;28;20031;-80
2023/06/28 03:04:02;;;;;;;9.73;4.00;;;;;;;16.43;95.02;101763.06;4972275;28;20018;-79
2023/06/28 03:06:27;;;;;;;9.90;3.80;;;;;;;16.42;95.75;101761.38;4972545;28;20026;-78
2023/06/28 03:08:55;;;;;;;7.50;3.50;;;;;;;16.40;96.19;101768.59;4973769;28;20023;-73
2023/06/28 03:11:21;;;;;;;9.27;4.05;;;;;;;16.40;97.08;101764.13;4972369;28;20430;-72
2023/06/28 03:13:46;;;;;;;9.60;4.03;;;;;;;16.39;96.57;101766.91;4975070;28;20035;-72
2023/06/28 03:16:11;;;;;;;9.95;3.83;;;;;;;16.33;95.54;101770.94;4982535;28;20022;-78
2023/06/28 03:18:37;;;;;;;5.10;3.72;;;;;;;16.34;95.92;101763.81;4973315;28;20023;-78
2023/06/28 03:21:03;;;;;;;9.20;4.20;;;;;;;16.27;96.27;101766.13;4961352;28;20039;-78
2023/06/28 03:23:28;;;;;;;8.23;4.13;;;;;;;16.24;97.52;101761.94;4984827;28;20057;-78
2023/06/28 03:25:54;;;;;;;12.25;4.13;;;;;;;16.20;97.20;101767.63;4972423;28;20379;-77
2023/06/28 03:28:19;;;;;;;9.07;3.88;;;;;;;16.23;97.95;101764.72;4972428;28;20034;-78
2023/06/28 03:30:45;;;;;;;10.55;4.25;;;;;;;16.20;98.12;101755.19;4970074;28;20022;-79
2023/06/28 03:33:10;;;;;;;10.95;4.55;;;;;;;16.20;97.50;101757.00;4990458;28;20129;-79
2023/06/28 03:35:35;;;;;;;9.35;4.45;;;;;;;16.21;98.25;101756.03;4972075;28;20061;-79
2023/06/28 03:38:02;;;;;;;7.38;4.03;;;;;;;16.18;97.43;101762.44;4968987;28;20037;-79
2023/06/28 03:40:29;;;;;;;8.35;4.38;;;;;;;16.15;97.51;101759.19;4970441;28;20183;-79
2023/06/28 03:42:54;;;;;;;11.18;4.45;;;;;;;16.12;98.88;101756.78;4970770;28;20026;-79
2023/06/28 03:45:20;;;;;;;9.70;4.72;;;;;;;16.09;98.53;101763.22;4971611;28;20042;-79
2023/06/28 03:47:47;;;;;;;10.55;4.57;;;;;;;16.07;99.76;101759.84;4971747;28;20150;-79
2023/06/28 03:50:13;;;;;;;11.45;4.70;;;;;;;16.05;99.47;101764.44;4970941;28;20109;-79
2023/06/28 03:52:39;;;;;;;13.23;4.65;;;;;;;16.02;99.14;101758.53;4971748;28;20558;-80
2023/06/28 03:55:06;;;;;;;10.33;4.93;;;;;;;15.99;100.00;101751.63;4969294;28;20023;-79
2023/06/28 03:57:32;;;;;;;9.88;4.80;;;;;;;15.93;100.00;101752.16;4970595;28;20026;-79
2023/06/28 03:59:58;;;;;;;11.85;5.13;;;;;;;15.89;100.00;101751.56;4969835;28;20041;-79
2023/06/28 04:02:23;;;;;;;12.70;4.97;;;;;;;15.88;100.00;101743.72;4971215;28;20031;-79
2023/06/28 04:04:49;;;;;;;9.40;4.78;;;;;;;15.87;100.00;101742.03;4970066;28;20058;-79
2023/06/28 04:07:15;;;;;;;11.23;4.55;;;;;;;15.84;99.82;101743.13;4970558;28;20476;-79
2023/06/28 04:09:44;;;;;;;14.80;5.22;;;;;;;15.80;100.00;101751.47;4970559;28;20078;-80
2023/06/28 04:12:10;;;;;;;11.40;4.93;;;;;;;15.84;100.00;101742.28;4954369;28;20027;-79
2023/06/28 04:14:36;;;;;;;13.60;5.10;;;;;;;15.84;99.91;101743.13;4971633;28;20023;-79
2023/06/28 04:17:01;;;;;;;8.77;5.03;;;;;;;15.82;100.00;101739.75;4977167;28;20077;-79
2023/06/28 04:19:27;;;;;;;9.52;4.93;;;;;;;15.86;100.00;101746.50;4970751;28;20030;-79
2023/06/28 04:21:52;;;;;;;7.65;4.97;;;;;;;15.87;100.00;101747.34;4971201;28;20027;-79
2023/06/28 04:24:17;;;;;;;10.75;5.10;;;;;;;15.89;100.00;101748.91;4971338;28;20031;-80
2023/06/28 04:26:43;;;;;;;12.15;5.20;;;;;;;15.87;100.00;101744.69;4970130;28;20500;-79
2023/06/28 04:29:08;;;;;;;9.93;5.35;;;;;;;15.89;100.00;101745.41;4964583;28;20610;-80
2023/06/28 04:31:34;;;;;;;10.00;5.55;;;;;;;15.88;100.00;101739.25;4976266;28;20058;-79
2023/06/28 04:33:59;;;;;;;10.35;5.65;;;;;;;15.91;100.00;101749.63;4970948;28;20042;-79
2023/06/28 04:36:25;;;;;;;11.25;4.90;;;;;;;15.87;100.00;101744.69;4971169;28;20076;-80
2023/06/28 04:38:52;;;;;;;10.30;5.25;;;;;;;15.88;100.00;101749.03;4970838;28;20042;-80
2023/06/28 04:41:19;;;;;;;12.55;5.50;;;;;;;15.90;100.00;101753.25;4968200;28;20034;-78
2023/06/28 04:43:45;;;;;;;12.85;5.65;;;;;;;15.92;100.00;101747.81;4966501;28;20034;-78
2023/06/28 04:46:11;;;;;;;8.05;4.63;;;;;;;15.95;100.00;101747.56;4964752;28;20033;-77
2023/06/28 04:48:38;;;;;;;15.05;5.95;;;;;;;15.92;100.00;101747.81;4979544;28;20030;-78
2023/06/28 04:51:03;;;;;;;14.02;5.68;;;;;;;15.92;100.00;101750.47;4970652;28;20446;-78
2023/06/28 04:53:30;;;;;;;10.68;5.45;;;;;;;15.94;100.00;101744.06;4969398;28;20141;-78
2023/06/28 04:55:55;;;;;;;11.18;5.25;;;;;;;15.96;100.00;101746.59;4970317;28;20081;-79
2023/06/28 04:58:22;;;;;;;10.35;6.07;;;;;;;15.96;100.00;101746.59;4970799;28;20708;-78
2023/06/28 05:00:48;;;;;;;9.20;5.20;;;;;;;15.97;100.00;101753.56;4970300;28;20066;-78
2023/06/28 05:03:15;;;;;;;9.00;5.82;;;;;;;15.94;100.00;101753.81;4971805;28;20026;-79
2023/06/28 05:05:41;;;;;;;11.52;5.63;;;;;;;15.92;100.00;101750.47;4963450;28;20058;-79
2023/06/28 05:08:10;;;;;;;9.73;5.60;;;;;;;15.95;100.00;101752.84;4971346;28;20471;-79
2023/06/28 05:10:36;;;;;;;12.30;5.15;;;;;;;15.99;100.00;101756.94;4972307;28;20031;-79
2023/06/28 05:13:02;;;;;;;10.68;5.65;;;;;;;16.00;100.00;101753.31;4971507;28;20031;-79
2023/06/28 05:15:32;;;;;;;12.15;5.47;;;;;;;16.00;100.00;101753.31;4969907;28;20770;-79
2023/06/28 05:17:58;;;;;;;11.13;5.95;;;;;;;15.99;100.00;101757.78;4971814;28;20026;-79
2023/06/28 05:20:23;;;;;;;11.10;5.40;;;;;;;16.01;100.00;101757.69;4968761;28;20033;-79
2023/06/28 05:22:49;;;;;;;11.02;6.03;;;;;;;16.02;100.00;101756.72;4968024;28;21659;-79
2023/06/28 05:25:19;;;;;;;10.52;5.47;;;;;;;16.01;100.00;101760.34;4969262;28;20106;-79
2023/06/28 05:27:44;;;;;;;11.15;6.25;;;;;;;15.96;100.00;101757.19;4951797;28;20089;-79
2023/06/28 05:30:10;;;;;;;11.48;6.25;;;;;;;15.95;100.00;101747.56;4952636;28;20444;-78
2023/06/28 05:32:39;;;;;;;12.23;5.70;;;;;;;15.90;100.00;101749.75;4974127;28;20142;-79
2023/06/28 05:35:06;;;;;;;10.13;6.10;;;;;;;15.95;100.00;101744.91;4970909;28;20051;-79
2023/06/28 05:37:31;;;;;;;13.15;6.70;;;;;;;16.03;100.00;101749.59;4965878;28;20047;-79
2023/06/28 05:39:57;;;;;;;10.63;6.57;;;;;;;16.01;100.00;101747.06;4952040;28;20038;-79
2023/06/28 05:42:22;;;;;;;11.13;6.15;;;;;;;16.05;100.00;101743.19;4952491;28;20027;-79
2023/06/28 05:44:47;;;;;;;11.23;6.05;;;;;;;16.10;100.00;101738.34;4951792;28;20031;-79
2023/06/28 05:47:13;;;;;;;9.73;6.30;;;;;;;16.12;100.00;101741.72;4951648;28;20019;-80
2023/06/28 05:49:42;;;;;;;11.93;6.00;;;;;;;16.11;100.00;101733.88;4951629;28;20571;-79
2023/06/28 05:52:07;;;;;;;11.65;6.45;;;;;;;16.17;100.00;101734.19;4970842;28;20030;-78
2023/06/28 05:54:33;;;;;;;13.02;6.45;;;;;;;16.17;100.00;101728.88;4971922;28;20073;-79
2023/06/28 05:56:58;;;;;;;12.38;6.55;;;;;;;16.17;100.00;101734.19;4972486;28;20023;-78
2023/06/28 05:59:24;;;;;;;14.45;6.15;;;;;;;16.20;100.00;101723.31;4973232;28;20454;-78
2023/06/28 06:01:49;;;;;;;13.63;6.32;;;;;;;16.21;100.00;101738.28;4972814;28;20542;-79
2023/06/28 06:04:14;;;;;;;11.02;6.20;;;;;;;16.30;100.00;101734.84;4974952;28;20033;-79
2023/06/28 06:06:40;;;;;;;15.13;6.53;;;;;;;16.33;100.00;101732.91;4975429;28;20027;-79
2023/06/28 06:09:05;;;;;;;13.80;6.45;;;;;;;16.40;100.00;101734.06;4972916;28;20029;-79
2023/06/28 06:11:30;;;;;;;11.45;6.45;;;;;;;16.46;100.00;101730.91;4972609;28;20394;-80
2023/06/28 06:13:56;;;;;;;12.30;6.38;;;;;;;16.45;100.00;101731.91;4974471;28;20399;-80
2023/06/28 06:16:21;;;;;;;11.95;6.63;;;;;;;16.45;100.00;101734.56;4975394;28;20114;-79
2023/06/28 06:18:46;;;;;;;13.25;6.65;;;;;;;16.47;100.00;101721.97;4971236;28;20085;-79
2023/06/28 06:21:12;;;;;;;13.85;6.68;;;;;;;16.44;100.00;101725.75;4973353;28;20109;-79
2023/06/28 06:23:45;;;;;;;11.48;7.30;;;;;;;16.45;100.00;101734.56;4973682;28;20054;-78
2023/06/28 06:26:10;;;;;;;10.60;6.22;;;;;;;16.49;100.00;101731.50;4973121;28;20076;-78
2023/06/28 06:28:40;;;;;;;14.77;6.95;;;;;;;16.51;100.00;101739.34;4972312;28;20062;-80
2023/06/28 06:31:05;;;;;;;14.55;6.18;;;;;;;16.46;100.00;101730.91;4973965;28;20034;-78
2023/06/28 06:33:31;;;;;;;14.10;7.22;;;;;;;16.45;100.00;101731.91;4973186;28;20433;-78
2023/06/28 06:35:56;;;;;;;10.75;6.75;;;;;;;16.45;100.00;101738.06;4973533;28;20479;-78
2023/06/28 06:38:21;;;;;;;13.35;6.88;;;;;;;16.45;100.00;101742.53;4975533;28;20038;-78
2023/06/28 06:40:48;;;;;;;10.45;6.55;;;;;;;16.49;100.00;101735.97;4973471;28;20058;-78
2023/06/28 06:43:13;;;;;;;10.55;6.30;;;;;;;16.53;100.00;101729.41;4973336;28;20069;-79
2023/06/28 06:45:39;;;;;;;12.02;6.30;;;;;;;16.51;100.00;101742.84;4971382;28;20508;-79
2023/06/28 06:48:05;;;;;;;12.82;6.15;;;;;;;16.53;100.00;101740.06;4962321;28;20077;-79
2023/06/28 06:50:30;;;;;;;13.13;6.28;;;;;;;16.53;100.00;101740.06;4973265;28;20459;-79
2023/06/28 06:52:56;;;;;;;12.30;6.05;;;;;;;16.54;100.00;101737.25;4972363;28;20556;-80
2023/06/28 06:55:23;;;;;;;13.90;6.30;;;;;;;16.51;100.00;101742.00;4972139;28;20019;-79
2023/06/28 06:57:50;;;;;;;12.57;7.00;;;;;;;16.49;100.00;101750.09;4972906;28;20495;-80
2023/06/28 07:00:16;;;;;;;13.98;6.60;;;;;;;16.54;100.00;101747.03;4980298;28;20105;-80
2023/06/28 07:02:41;;;;;;;11.57;6.45;;;;;;;16.60;100.00;101742.06;4968074;28;20023;-80
2023/06/28 07:05:11;;;;;;;12.05;6.15;;;;;;;16.61;100.00;101742.88;4972959;28;20038;-80
2023/06/28 07:07:36;;;;;;;12.23;6.00;;;;;;;16.59;99.92;101743.03;4972836;28;20037;-78
2023/06/28 07:10:01;;;;;;;10.73;5.80;;;;;;;16.57;99.82;101752.09;4973826;28;20035;-79
2023/06/28 07:12:27;;;;;;;11.32;5.63;;;;;;;16.59;99.08;101750.16;4972079;28;20157;-78
2023/06/28 07:14:52;;;;;;;7.93;5.15;;;;;;;16.60;98.49;101757.16;4967579;28;20030;-78
2023/06/28 07:17:17;;;;;;;10.57;5.78;;;;;;;16.60;97.56;101759.81;4972106;28;20026;-79
2023/06/28 07:19:43;;;;;;;10.77;5.60;;;;;;;16.60;97.51;101759.81;4969818;28;20506;-79
2023/06/28 07:22:08;;;;;;;11.60;5.38;;;;;;;16.60;97.08;101765.13;4972025;28;20031;-79
2023/06/28 07:24:33;;;;;;;7.90;5.18;;;;;;;16.62;96.72;101760.53;4969934;28;20033;-79
2023/06/28 07:26:59;;;;;;;9.32;5.70;;;;;;;16.60;96.51;101765.13;4972702;28;20023;-79
2023/06/28 07:29:24;;;;;;;11.65;5.82;;;;;;;16.61;95.29;101766.81;4971995;28;20035;-79
2023/06/28 07:31:50;;;;;;;14.27;5.80;;;;;;;16.64;95.08;101768.34;4973386;28;20085;-77
2023/06/28 07:34:15;;;;;;;10.48;6.25;;;;;;;16.65;94.87;101762.91;4968858;28;20054;-77
2023/06/28 07:36:40;;;;;;;12.02;6.28;;;;;;;16.67;96.03;101763.66;4967336;28;20031;-77
2023/06/28 07:39:09;;;;;;;9.60;5.80;;;;;;;16.70;96.39;101762.56;4972859;28;20039;-77
2023/06/28 07:41:34;;;;;;;11.73;5.75;;;;;;;16.72;93.69;101765.91;4973045;28;20431;-77
2023/06/28 07:43:59;;;;;;;11.73;6.57;;;;;;;16.73;94.78;101755.16;4971649;28;20069;-78
2023/06/28 07:46:25;;;;;;;10.02;5.60;;;;;;;16.76;93.64;101757.56;4970816;28;20027;-77
2023/06/28 07:48:56;;;;;;;10.48;5.22;;;;;;;16.83;94.30;101752.56;4972401;28;20035;-77
2023/06/28 07:51:21;;;;;;;11.23;6.05;;;;;;;16.84;93.50;101760.41;4984236;28;20050;-77
2023/06/28 07:53:46;;;;;;;8.77;5.18;;;;;;;16.88;93.31;101758.34;4986303;28;20031;-80
2023/06/28 07:56:16;;;;;;;9.65;5.85;;;;;;;16.94;93.81;101755.16;4970448;28;20026;-80
2023/06/28 07:58:42;;;;;;;12.93;5.90;;;;;;;16.96;93.30;101753.19;4970363;28;20394;-80
2023/06/28 08:01:07;;;;;;;9.75;5.05;;;;;;;17.04;92.92;101749.88;4973794;28;20027;-80
2023/06/28 08:03:33;;;;;;;12.27;6.22;;;;;;;17.01;93.45;101756.28;4971152;28;20113;-79
2023/06/28 08:05:58;;;;;;;12.68;6.38;;;;;;;17.00;92.33;101749.28;4971904;28;20033;-80
2023/06/28 08:08:24;;;;;;;11.15;5.82;;;;;;;17.01;90.62;101756.28;4960975;28;20058;-78
2023/06/28 08:10:49;;;;;;;11.65;5.57;;;;;;;17.04;91.43;101750.72;4959636;28;20027;-79
2023/06/28 08:13:16;;;;;;;12.63;6.20;;;;;;;16.98;92.21;101750.41;4971691;28;20033;-79
2023/06/28 08:15:42;;;;;;;10.95;5.78;;;;;;;17.06;92.68;101756.72;4971060;28;20479;-80
2023/06/28 08:18:09;;;;;;;10.85;5.47;;;;;;;17.08;91.39;101751.28;4970150;28;20070;-77
2023/06/28 08:20:35;;;;;;;11.90;6.00;;;;;;;17.07;91.82;101745.13;4973031;28;20487;-79
2023/06/28 08:23:00;;;;;;;13.20;5.55;;;;;;;17.12;91.63;101748.22;4971129;28;20038;-78
2023/06/28 08:25:31;;;;;;;9.32;5.20;;;;;;;17.16;91.92;101749.63;4964341;28;20023;-79
2023/06/28 08:27:57;;;;;;;13.07;5.18;;;;;;;17.25;91.19;101748.00;4970984;28;20035;-79
2023/06/28 08:30:22;;;;;;;10.18;5.63;;;;;;;17.34;91.92;101747.19;4971774;28;20429;-80
2023/06/28 08:32:48;;;;;;;12.10;5.65;;;;;;;17.40;89.83;101745.81;4970121;28;20113;-80
2023/06/28 08:35:13;;;;;;;10.63;5.50;;;;;;;17.52;89.45;101753.53;4969571;28;20057;-81
2023/06/28 08:37:39;;;;;;;9.48;5.40;;;;;;;17.63;88.40;101757.09;4974986;28;20027;-80
2023/06/28 08:40:05;;;;;;;10.65;5.53;;;;;;;17.74;87.98;101751.66;4970690;28;20110;-79
2023/06/28 08:42:33;;;;;;;10.85;5.75;;;;;;;17.86;87.80;101753.22;4956020;28;20034;-79
2023/06/28 08:45:01;;;;;;;11.60;5.30;;;;;;;17.92;87.45;101751.81;4960182;28;20030;-79
2023/06/28 08:47:32;;;;;;;8.68;5.00;;;;;;;17.99;87.55;101748.44;4987803;28;20118;-79
2023/06/28 08:49:58;;;;;;;12.05;5.38;;;;;;;18.18;86.41;101747.63;4975853;28;20264;-82
2023/06/28 08:52:24;;;;;;;11.27;5.22;;;;;;;18.20;85.80;101745.66;4969453;28;20031;-78
2023/06/28 08:54:51;;;;;;;10.43;5.13;;;;;;;18.39;85.01;101750.97;4975697;28;20030;-81
2023/06/28 08:57:17;;;;;;;14.20;5.53;;;;;;;18.60;85.99;101745.47;4969401;28;20375;-81
2023/06/28 08:59:43;;;;;;;9.30;5.78;;;;;;;18.76;85.12;101748.41;4965472;28;20041;-79
2023/06/28 09:02:09;;;;;;;12.38;4.95;;;;;;;18.86;80.72;101747.56;4971060;28;20033;-79
2023/06/28 09:04:35;;;;;;;12.30;5.15;;;;;;;18.94;80.95;101747.66;4971207;28;20482;-81
2023/06/28 09:07:01;;;;;;;9.30;4.88;;;;;;;19.01;80.24;101746.09;4970170;28;20074;-81
2023/06/28 09:09:28;;;;;;;12.02;5.25;;;;;;;19.06;79.94;101743.81;4970629;28;20046;-80
2023/06/28 09:11:55;;;;;;;9.32;4.53;;;;;;;19.17;79.38;101740.09;4978080;28;20034;-80
2023/06/28 09:14:20;;;;;;;8.10;4.45;;;;;;;19.16;78.47;101733.94;4970556;28;20106;-80
2023/06/28 09:16:45;;;;;;;9.60;4.55;;;;;;;19.18;78.36;101737.28;4972816;28;20102;-82
2023/06/28 09:19:11;;;;;;;9.77;4.80;;;;;;;19.21;76.96;101736.16;4970734;28;20031;-81
2023/06/28 09:21:37;;;;;;;12.65;4.60;;;;;;;19.25;76.77;101734.91;4964551;28;20035;-81
2023/06/28 09:24:02;;;;;;;13.15;4.50;;;;;;;19.31;77.32;101737.81;4963807;28;20050;-81
2023/06/28 09:26:32;;;;;;;10.85;4.30;;;;;;;19.27;76.84;101724.91;4991153;28;20085;-81
2023/06/28 09:29:12;;;;;;;13.30;4.45;;;;;;;19.38;77.17;101728.22;4988497;28;20117;-81
2023/06/28 09:31:43;;;;;;;17.08;4.93;;;;;;;19.38;75.04;101733.56;4974386;28;20046;-81
2023/06/28 09:34:10;;;;;;;8.50;4.43;;;;;;;19.37;76.25;101733.72;4972820;28;20326;-81
2023/06/28 09:36:38;;;;;;;11.68;4.35;;;;;;;19.47;75.49;101730.97;4975519;28;20042;-80
2023/06/28 09:39:04;;;;;;;10.98;4.03;;;;;;;19.64;74.44;101727.53;4973246;28;20030;-80
2023/06/28 09:41:48;;;;;;;9.55;3.97;;;;;;;19.80;74.76;101734.88;4973476;28;20042;-79
2023/06/28 09:44:13;;;;;;;12.93;4.45;;;;;;;19.90;72.83;101739.13;4973664;28;20375;-80
2023/06/28 09:46:45;;;;;;;9.55;4.15;;;;;;;19.90;74.21;101733.78;4974331;28;20023;-80
2023/06/28 09:49:21;;;;;;;11.60;4.10;;;;;;;20.08;73.47;101732.97;4958327;28;20059;-80
2023/06/28 09:52:02;;;;;;;11.55;4.07;;;;;;;20.09;72.81;101731.97;4973919;28;20098;-79
2023/06/28 09:54:44;;;;;;;9.65;3.90;;;;;;;20.12;72.88;101732.50;4972374;28;20031;-81
2023/06/28 09:57:10;;;;;;;10.15;3.78;;;;;;;20.30;71.75;101729.81;4973210;28;20030;-79
2023/06/28 09:59:36;;;;;;;9.15;3.28;;;;;;;20.65;69.56;101719.06;4975628;28;20064;-79
2023/06/28 10:02:06;;;;;;;9.23;3.53;;;;;;;20.77;68.46;101722.28;4977923;28;20049;-79
2023/06/28 10:04:34;;;;;;;13.50;3.75;;;;;;;21.14;67.75;101718.47;4995197;28;20034;-79
2023/06/28 10:07:00;;;;;;;10.45;4.25;;;;;;;21.35;65.66;101718.94;4973496;28;20126;-79
2023/06/28 10:09:35;;;;;;;8.35;3.50;;;;;;;21.30;63.82;101715.06;4977337;28;20031;-76
2023/06/28 10:12:03;;;;;;;8.55;3.42;;;;;;;21.48;65.56;101713.09;4978338;28;20026;-80
2023/06/28 10:14:35;;;;;;;9.45;3.33;;;;;;;21.58;65.03;101716.47;4971514;28;20050;-80
2023/06/28 10:17:01;;;;;;;9.02;3.50;;;;;;;21.49;63.24;101709.41;4987913;28;20109;-80
2023/06/28 10:19:28;;;;;;;11.98;3.90;;;;;;;21.46;61.92;101707.91;4973493;28;20517;-77
2023/06/28 10:21:55;;;;;;;7.45;3.38;;;;;;;21.59;62.53;101700.22;4973483;28;20399;-80
2023/06/28 10:24:21;;;;;;;6.43;2.85;;;;;;;21.73;64.11;101705.97;4974875;28;20092;-80
2023/06/28 10:26:48;;;;;;;10.60;3.38;;;;;;;21.87;60.86;101711.50;4971307;28;20039;-80
2023/06/28 10:29:13;;;;;;;10.35;4.05;;;;;;;22.13;60.90;101705.19;4972744;28;20035;-80
2023/06/28 10:31:39;;;;;;;9.45;3.70;;;;;;;22.23;58.93;101710.38;4970311;28;20485;-80
2023/06/28 10:34:07;;;;;;;9.07;3.92;;;;;;;22.30;58.98;101706.00;4972386;28;20528;-79
2023/06/28 10:36:32;;;;;;;7.13;3.63;;;;;;;22.34;58.30;101694.78;4970245;28;20487;-80
2023/06/28 10:38:58;;;;;;;8.90;3.70;;;;;;;22.49;57.88;101701.13;4972433;28;20077;-79
2023/06/28 10:41:25;;;;;;;7.63;3.53;;;;;;;22.66;59.68;101695.72;4971333;28;20038;-79
2023/06/28 10:44:04;;;;;;;7.82;3.47;;;;;;;22.82;60.18;101701.09;4979326;28;20089;-78
2023/06/28 10:46:31;;;;;;;6.57;3.20;;;;;;;23.29;57.72;101697.53;4979976;28;20037;-79
2023/06/28 10:49:00;;;;;;;13.73;3.58;;;;;;;23.48;56.72;101701.63;4987111;28;20030;-79
2023/06/28 10:51:29;;;;;;;9.50;3.50;;;;;;;23.93;56.69;101695.44;4973547;28;20114;-79
2023/06/28 10:54:07;;;;;;;8.38;3.72;;;;;;;24.23;55.44;101697.22;4984765;28;20386;-79
2023/06/28 10:56:37;;;;;;;10.48;3.70;;;;;;;24.85;52.68;101694.25;4981836;28;20030;-79
2023/06/28 10:59:05;;;;;;;7.63;3.33;;;;;;;25.18;51.73;101685.78;4979454;28;20034;-78
2023/06/28 11:01:31;;;;;;;8.63;3.20;;;;;;;24.90;51.07;101689.16;4989332;28;20569;-77
2023/06/28 11:04:17;;;;;;;10.25;3.90;;;;;;;24.65;54.98;101693.13;4980384;28;20030;-78
2023/06/28 11:06:43;;;;;;;16.58;3.78;;;;;;;24.36;54.19;101681.31;4984223;28;20495;-78
2023/06/28 11:09:13;;;;;;;8.02;3.38;;;;;;;24.56;55.07;101678.09;4977557;28;20057;-78
2023/06/28 11:11:42;;;;;;;9.18;4.13;;;;;;;24.27;53.25;101685.09;4977584;28;20026;-79
2023/06/28 11:14:27;;;;;;;11.13;4.07;;;;;;;24.45;54.98;101670.50;4988536;28;20030;-79
2023/06/28 11:17:10;;;;;;;9.45;3.83;;;;;;;24.39;54.33;101677.41;4972533;28;20031;-78